createdAt,value
2023-03-06T00:00:35.457Z,1.16
2023-03-06T00:01:35.509Z,1.13
2023-03-06T00:02:35.562Z,1.11
2023-03-06T00:03:35.650Z,1.10
2023-03-06T00:04:35.659Z,1.14
2023-03-06T00:05:34.755Z,1.14
2023-03-06T00:06:35.744Z,1.18
2023-03-06T00:07:35.798Z,1.14
2023-03-06T00:08:35.882Z,1.14
2023-03-06T00:09:35.902Z,1.17
2023-03-06T00:10:35.951Z,1.08
2023-03-06T00:11:36.002Z,1.01
2023-03-06T00:12:36.038Z,1.00
2023-03-06T00:13:35.114Z,0.99
2023-03-06T00:14:35.108Z,1.07
2023-03-06T00:15:36.147Z,1.11
2023-03-06T00:16:36.315Z,1.09
2023-03-06T00:17:36.233Z,1.13
2023-03-06T00:18:36.265Z,1.16
2023-03-06T00:19:35.345Z,1.11
2023-03-06T00:20:35.332Z,1.18
2023-03-06T00:21:36.370Z,1.30
2023-03-06T00:22:36.383Z,1.27
2023-03-06T00:23:36.429Z,1.16
2023-03-06T00:24:36.424Z,1.08
2023-03-06T00:25:36.431Z,1.08
2023-03-06T00:26:35.448Z,1.07
2023-03-06T00:27:35.456Z,1.01
2023-03-06T00:28:35.463Z,0.98
2023-03-06T00:29:36.485Z,0.93
2023-03-06T00:30:36.565Z,0.88
2023-03-06T00:31:36.539Z,0.87
2023-03-06T00:32:35.554Z,0.82
2023-03-06T00:33:36.449Z,0.82
2023-03-06T00:34:35.453Z,0.81
2023-03-06T00:35:36.556Z,0.84
2023-03-06T00:36:36.476Z,0.82
2023-03-06T00:37:35.514Z,0.79
2023-03-06T00:38:36.479Z,0.75
2023-03-06T00:39:36.477Z,0.78
2023-03-06T00:40:35.486Z,0.75
2023-03-06T00:41:36.497Z,0.75
2023-03-06T00:42:36.543Z,0.73
2023-03-06T00:43:36.517Z,0.74
2023-03-06T00:44:36.542Z,0.72
2023-03-06T00:45:36.573Z,0.72
2023-03-06T00:46:36.540Z,0.70
2023-03-06T00:47:36.531Z,0.71
2023-03-06T00:48:36.556Z,0.68
2023-03-06T00:49:36.536Z,0.71
2023-03-06T00:50:36.541Z,0.72
2023-03-06T00:51:36.535Z,0.69
2023-03-06T00:52:35.541Z,0.70
2023-03-06T00:53:36.600Z,0.68
2023-03-06T00:54:36.549Z,0.67
2023-03-06T00:55:36.575Z,0.68
2023-03-06T00:56:36.560Z,0.68
2023-03-06T00:57:36.595Z,0.68
2023-03-06T00:58:36.602Z,0.67
2023-03-06T00:59:35.647Z,0.68
2023-03-06T01:00:36.782Z,0.65
2023-03-06T01:01:36.754Z,0.66
2023-03-06T01:02:36.809Z,0.66
2023-03-06T01:03:36.849Z,0.66
2023-03-06T01:04:36.904Z,0.66
2023-03-06T01:05:36.962Z,0.64
2023-03-06T01:06:37.042Z,0.65
2023-03-06T01:07:37.085Z,0.64
2023-03-06T01:08:37.147Z,0.63
2023-03-06T01:09:37.218Z,0.64
2023-03-06T01:10:36.243Z,0.64
2023-03-06T01:11:36.292Z,0.62
2023-03-06T01:12:37.362Z,0.62
2023-03-06T01:13:37.448Z,0.63
2023-03-06T01:14:37.501Z,0.62
2023-03-06T01:15:37.552Z,0.62
2023-03-06T01:16:37.660Z,0.61
2023-03-06T01:17:36.691Z,0.62
2023-03-06T01:18:36.752Z,0.62
2023-03-06T01:19:37.820Z,0.62
2023-03-06T01:20:36.882Z,0.60
2023-03-06T01:21:37.955Z,0.61
2023-03-06T01:22:38.001Z,0.61
2023-03-06T01:23:38.063Z,0.59
2023-03-06T01:24:38.124Z,0.60
2023-03-06T01:25:38.213Z,0.61
2023-03-06T01:26:38.252Z,0.58
2023-03-06T01:27:38.312Z,0.59
2023-03-06T01:28:38.371Z,0.59
2023-03-06T01:29:38.430Z,0.58
2023-03-06T01:30:38.488Z,0.58
2023-03-06T01:31:38.654Z,0.58
2023-03-06T01:32:38.717Z,0.56
2023-03-06T01:33:38.685Z,0.58
2023-03-06T01:34:37.746Z,0.57
2023-03-06T01:35:37.849Z,0.57
2023-03-06T01:36:38.855Z,0.57
2023-03-06T01:37:38.918Z,0.56
2023-03-06T01:38:38.980Z,0.57
2023-03-06T01:39:39.035Z,0.58
2023-03-06T01:40:39.112Z,0.56
2023-03-06T01:41:38.196Z,0.56
2023-03-06T01:42:39.219Z,0.56
2023-03-06T01:43:39.270Z,0.56
2023-03-06T01:44:39.338Z,0.56
2023-03-06T01:45:39.399Z,0.55
2023-03-06T01:46:38.438Z,0.55
2023-03-06T01:47:39.496Z,0.57
2023-03-06T01:48:39.565Z,0.55
2023-03-06T01:49:39.635Z,0.55
2023-03-06T01:50:38.673Z,0.55
2023-03-06T01:51:39.722Z,0.54
2023-03-06T01:52:39.816Z,0.55
2023-03-06T01:53:39.853Z,0.54
2023-03-06T01:54:38.906Z,0.55
2023-03-06T01:55:39.938Z,0.54
2023-03-06T01:56:38.996Z,0.54
2023-03-06T01:57:40.075Z,0.54
2023-03-06T01:58:40.101Z,0.54
2023-03-06T01:59:39.147Z,0.53
2023-03-06T02:00:40.211Z,0.53
2023-03-06T02:01:40.247Z,0.53
2023-03-06T02:02:40.345Z,0.53
2023-03-06T02:03:39.352Z,0.53
2023-03-06T02:04:40.454Z,0.54
2023-03-06T02:05:39.461Z,0.53
2023-03-06T02:06:40.525Z,0.52
2023-03-06T02:07:40.577Z,0.53
2023-03-06T02:08:40.632Z,0.52
2023-03-06T02:09:40.690Z,0.52
2023-03-06T02:10:40.731Z,0.52
2023-03-06T02:11:40.823Z,0.52
2023-03-06T02:12:40.825Z,0.51
2023-03-06T02:13:40.902Z,0.51
2023-03-06T02:14:40.941Z,0.52
2023-03-06T02:15:40.965Z,0.52
2023-03-06T02:16:41.108Z,0.51
2023-03-06T02:17:40.081Z,0.52
2023-03-06T02:18:41.118Z,0.52
2023-03-06T02:19:40.156Z,0.51
2023-03-06T02:20:41.201Z,0.51
2023-03-06T02:21:41.289Z,0.51
2023-03-06T02:22:41.300Z,0.50
2023-03-06T02:23:41.339Z,0.51
2023-03-06T02:24:41.387Z,0.51
2023-03-06T02:25:40.424Z,0.51
2023-03-06T02:26:41.469Z,0.52
2023-03-06T02:27:41.524Z,0.51
2023-03-06T02:28:41.555Z,0.51
2023-03-06T02:29:41.614Z,0.51
2023-03-06T02:30:40.682Z,0.51
2023-03-06T02:31:41.675Z,0.51
2023-03-06T02:32:40.713Z,0.51
2023-03-06T02:33:41.756Z,0.51
2023-03-06T02:34:40.804Z,0.51
2023-03-06T02:35:41.895Z,0.51
2023-03-06T02:36:40.888Z,0.51
2023-03-06T02:37:40.938Z,0.52
2023-03-06T02:38:41.975Z,0.52
2023-03-06T02:39:42.008Z,0.51
2023-03-06T02:40:42.045Z,0.52
2023-03-06T02:41:42.091Z,0.51
2023-03-06T02:42:42.135Z,0.50
2023-03-06T02:43:41.172Z,0.52
2023-03-06T02:44:41.255Z,0.51
2023-03-06T02:45:41.289Z,0.52
2023-03-06T02:46:41.309Z,0.51
2023-03-06T02:47:42.362Z,0.51
2023-03-06T02:48:42.425Z,0.51
2023-03-06T02:49:42.458Z,0.52
2023-03-06T02:50:41.522Z,0.53
2023-03-06T02:51:42.603Z,0.54
2023-03-06T02:52:42.600Z,0.53
2023-03-06T02:53:42.649Z,0.52
2023-03-06T02:54:42.711Z,0.53
2023-03-06T02:55:42.746Z,0.52
2023-03-06T02:56:41.780Z,0.51
2023-03-06T02:57:42.840Z,0.51
2023-03-06T02:58:42.881Z,0.51
2023-03-06T02:59:42.943Z,0.52
2023-03-06T03:00:41.968Z,0.53
2023-03-06T03:01:43.116Z,0.52
2023-03-06T03:02:43.071Z,0.54
2023-03-06T03:03:42.110Z,0.52
2023-03-06T03:04:42.209Z,0.50
2023-03-06T03:05:43.222Z,0.53
2023-03-06T03:06:42.269Z,0.51
2023-03-06T03:07:43.320Z,0.51
2023-03-06T03:08:43.372Z,0.51
2023-03-06T03:09:43.425Z,0.53
2023-03-06T03:10:42.480Z,0.51
2023-03-06T03:11:43.561Z,0.51
2023-03-06T03:12:43.611Z,0.52
2023-03-06T03:13:42.627Z,0.51
2023-03-06T03:14:43.700Z,0.51
2023-03-06T03:15:43.790Z,0.50
2023-03-06T03:16:43.773Z,0.50
2023-03-06T03:17:43.865Z,0.51
2023-03-06T03:18:43.886Z,0.51
2023-03-06T03:19:43.916Z,0.51
2023-03-06T03:20:42.991Z,0.52
2023-03-06T03:21:44.009Z,0.51
2023-03-06T03:22:44.054Z,0.51
2023-03-06T03:23:44.105Z,0.51
2023-03-06T03:24:44.177Z,0.52
2023-03-06T03:25:43.221Z,0.53
2023-03-06T03:26:43.241Z,0.51
2023-03-06T03:27:44.282Z,0.51
2023-03-06T03:28:44.343Z,0.51
2023-03-06T03:29:44.369Z,0.51
2023-03-06T03:30:44.428Z,0.52
2023-03-06T03:31:43.470Z,0.52
2023-03-06T03:32:44.544Z,0.51
2023-03-06T03:33:44.602Z,0.51
2023-03-06T03:34:44.626Z,0.51
2023-03-06T03:35:44.696Z,0.50
2023-03-06T03:36:44.715Z,0.52
2023-03-06T03:37:44.743Z,0.51
2023-03-06T03:38:44.800Z,0.51
2023-03-06T03:39:44.837Z,0.51
2023-03-06T03:40:44.916Z,0.50
2023-03-06T03:41:44.934Z,0.51
2023-03-06T03:42:44.981Z,0.51
2023-03-06T03:43:44.033Z,0.51
2023-03-06T03:44:45.072Z,0.51
2023-03-06T03:45:45.154Z,0.51
2023-03-06T03:46:45.261Z,0.51
2023-03-06T03:47:45.199Z,0.53
2023-03-06T03:48:45.246Z,0.51
2023-03-06T03:49:45.323Z,0.51
2023-03-06T03:50:45.374Z,0.51
2023-03-06T03:51:45.387Z,0.50
2023-03-06T03:52:44.434Z,0.51
2023-03-06T03:53:45.456Z,0.52
2023-03-06T03:54:45.509Z,0.52
2023-03-06T03:55:45.566Z,0.51
2023-03-06T03:56:45.629Z,0.52
2023-03-06T03:57:45.628Z,0.52
2023-03-06T03:58:44.688Z,0.52
2023-03-06T03:59:45.715Z,0.51
2023-03-06T04:00:44.763Z,0.52
2023-03-06T04:01:45.860Z,0.53
2023-03-06T04:02:45.857Z,0.52
2023-03-06T04:03:45.869Z,0.51
2023-03-06T04:04:45.935Z,0.51
2023-03-06T04:05:44.983Z,0.52
2023-03-06T04:06:46.019Z,0.53
2023-03-06T04:07:46.077Z,0.52
2023-03-06T04:08:46.107Z,0.52
2023-03-06T04:09:46.126Z,0.52
2023-03-06T04:10:46.174Z,0.52
2023-03-06T04:11:46.222Z,0.52
2023-03-06T04:12:46.264Z,0.52
2023-03-06T04:13:46.381Z,0.52
2023-03-06T04:14:46.334Z,0.53
2023-03-06T04:15:46.371Z,0.52
2023-03-06T04:16:45.417Z,0.51
2023-03-06T04:17:46.463Z,0.51
2023-03-06T04:18:46.507Z,0.52
2023-03-06T04:19:45.554Z,0.51
2023-03-06T04:20:46.597Z,0.52
2023-03-06T04:21:46.644Z,0.52
2023-03-06T04:22:45.660Z,0.52
2023-03-06T04:23:46.699Z,0.52
2023-03-06T04:24:46.751Z,0.52
2023-03-06T04:25:45.776Z,0.51
2023-03-06T04:26:46.824Z,0.51
2023-03-06T04:27:46.874Z,0.52
2023-03-06T04:28:45.894Z,0.52
2023-03-06T04:29:46.938Z,0.52
2023-03-06T04:30:46.989Z,0.52
2023-03-06T04:31:47.050Z,0.52
2023-03-06T04:32:46.054Z,0.52
2023-03-06T04:33:46.104Z,0.51
2023-03-06T04:34:46.153Z,0.51
2023-03-06T04:35:47.244Z,0.50
2023-03-06T04:36:47.220Z,0.51
2023-03-06T04:37:46.286Z,0.53
2023-03-06T04:38:46.421Z,0.52
2023-03-06T04:39:47.335Z,0.52
2023-03-06T04:40:47.377Z,0.51
2023-03-06T04:41:46.422Z,0.51
2023-03-06T04:42:47.480Z,0.50
2023-03-06T04:43:47.482Z,0.51
2023-03-06T04:44:47.533Z,0.51
2023-03-06T04:45:47.654Z,0.52
2023-03-06T04:46:47.634Z,0.52
2023-03-06T04:47:47.652Z,0.52
2023-03-06T04:48:46.686Z,0.52
2023-03-06T04:49:47.734Z,0.52
2023-03-06T04:50:46.776Z,0.51
2023-03-06T04:51:47.819Z,0.52
2023-03-06T04:52:47.865Z,0.51
2023-03-06T04:53:46.921Z,0.53
2023-03-06T04:54:46.938Z,0.52
2023-03-06T04:55:47.993Z,0.52
2023-03-06T04:56:48.006Z,0.52
2023-03-06T04:57:48.034Z,0.51
2023-03-06T04:58:48.072Z,0.52
2023-03-06T04:59:47.119Z,0.52
2023-03-06T05:00:48.229Z,0.52
2023-03-06T05:01:47.270Z,0.51
2023-03-06T05:02:48.231Z,0.52
2023-03-06T05:03:48.253Z,0.52
2023-03-06T05:04:48.302Z,0.51
2023-03-06T05:05:48.341Z,0.53
2023-03-06T05:06:48.386Z,0.51
2023-03-06T05:07:47.441Z,0.52
2023-03-06T05:08:47.462Z,0.53
2023-03-06T05:09:48.506Z,0.51
2023-03-06T05:10:48.531Z,0.53
2023-03-06T05:11:48.575Z,0.51
2023-03-06T05:12:47.606Z,0.53
2023-03-06T05:13:48.656Z,0.52
2023-03-06T05:14:48.682Z,0.53
2023-03-06T05:15:48.696Z,0.53
2023-03-06T05:16:48.835Z,0.51
2023-03-06T05:17:48.784Z,0.52
2023-03-06T05:18:50.602Z,0.52
2023-03-06T05:19:48.793Z,0.52
2023-03-06T05:20:48.793Z,0.53
2023-03-06T05:21:48.791Z,0.52
2023-03-06T05:22:48.773Z,0.51
2023-03-06T05:23:48.770Z,0.51
2023-03-06T05:24:48.776Z,0.51
2023-03-06T05:25:48.773Z,0.52
2023-03-06T05:26:47.741Z,0.52
2023-03-06T05:27:48.740Z,0.52
2023-03-06T05:28:48.732Z,0.51
2023-03-06T05:29:49.408Z,0.51
2023-03-06T05:30:48.713Z,0.52
2023-03-06T05:31:48.826Z,0.50
2023-03-06T05:32:48.744Z,0.52
2023-03-06T05:33:48.702Z,0.51
2023-03-06T05:34:48.679Z,0.52
2023-03-06T05:35:48.736Z,0.52
2023-03-06T05:36:48.681Z,0.51
2023-03-06T05:37:48.685Z,0.52
2023-03-06T05:38:48.688Z,0.51
2023-03-06T05:39:48.662Z,0.52
2023-03-06T05:40:48.659Z,0.52
2023-03-06T05:41:48.664Z,0.52
2023-03-06T05:42:48.651Z,0.52
2023-03-06T05:43:48.645Z,0.52
2023-03-06T05:44:48.623Z,0.51
2023-03-06T05:45:47.665Z,0.52
2023-03-06T05:46:47.610Z,0.52
2023-03-06T05:47:48.608Z,0.52
2023-03-06T05:48:48.587Z,0.51
2023-03-06T05:49:47.593Z,0.51
2023-03-06T05:50:48.595Z,0.51
2023-03-06T05:51:47.571Z,0.52
2023-03-06T05:52:48.619Z,0.52
2023-03-06T05:53:48.750Z,0.52
2023-03-06T05:54:48.698Z,0.51
2023-03-06T05:55:48.729Z,0.51
2023-03-06T05:56:47.777Z,0.52
2023-03-06T05:57:48.843Z,0.51
2023-03-06T05:58:47.873Z,0.53
2023-03-06T05:59:48.908Z,0.51
2023-03-06T06:00:47.958Z,0.51
2023-03-06T06:01:48.998Z,0.51
2023-03-06T06:02:49.044Z,0.53
2023-03-06T06:03:49.153Z,0.51
2023-03-06T06:04:49.122Z,0.52
2023-03-06T06:05:48.160Z,0.51
2023-03-06T06:06:49.205Z,0.52
2023-03-06T06:07:49.277Z,0.51
2023-03-06T06:08:49.293Z,0.53
2023-03-06T06:09:49.322Z,0.53
2023-03-06T06:10:51.581Z,0.52
2023-03-06T06:11:48.368Z,0.52
2023-03-06T06:12:49.369Z,0.52
2023-03-06T06:13:49.364Z,0.52
2023-03-06T06:14:48.339Z,0.52
2023-03-06T06:15:49.410Z,0.53
2023-03-06T06:16:49.342Z,0.51
2023-03-06T06:17:49.349Z,0.53
2023-03-06T06:18:49.321Z,0.53
2023-03-06T06:19:48.310Z,0.50
2023-03-06T06:20:49.312Z,0.51
2023-03-06T06:21:49.302Z,0.52
2023-03-06T06:22:49.303Z,0.53
2023-03-06T06:23:48.288Z,0.57
2023-03-06T06:24:49.298Z,0.56
2023-03-06T06:25:49.294Z,0.55
2023-03-06T06:26:49.264Z,0.56
2023-03-06T06:27:49.314Z,0.58
2023-03-06T06:28:49.340Z,0.55
2023-03-06T06:29:49.419Z,0.55
2023-03-06T06:30:49.463Z,0.57
2023-03-06T06:31:48.443Z,0.71
2023-03-06T06:32:49.482Z,0.64
2023-03-06T06:33:49.498Z,0.62
2023-03-06T06:34:49.534Z,0.61
2023-03-06T06:35:49.589Z,0.59
2023-03-06T06:36:52.213Z,0.59
2023-03-06T06:37:49.580Z,0.59
2023-03-06T06:38:49.543Z,0.59
2023-03-06T06:39:49.547Z,0.61
2023-03-06T06:41:26.897Z,0.67
2023-03-06T06:42:14.537Z,0.59
2023-03-06T06:42:49.529Z,0.59
2023-03-06T06:43:49.532Z,0.60
2023-03-06T06:44:49.623Z,0.62
2023-03-06T06:45:50.424Z,0.64
2023-03-06T06:47:49.552Z,0.59
2023-03-06T06:48:49.469Z,0.62
2023-03-06T06:49:49.482Z,0.72
2023-03-06T06:50:49.490Z,0.75
2023-03-06T06:51:49.541Z,0.81
2023-03-06T06:52:49.505Z,1.00
2023-03-06T06:53:49.446Z,0.91
2023-03-06T06:54:49.442Z,0.95
2023-03-06T06:55:49.462Z,1.07
2023-03-06T06:56:49.428Z,1.15
2023-03-06T06:57:49.429Z,1.02
2023-03-06T06:58:49.420Z,1.13
2023-03-06T06:59:51.262Z,1.05
2023-03-06T07:00:49.413Z,1.05
2023-03-06T07:01:49.460Z,1.09
2023-03-06T07:02:49.456Z,1.15
2023-03-06T07:03:49.398Z,1.19
2023-03-06T07:05:03.013Z,1.28
2023-03-06T07:05:49.375Z,1.05
2023-03-06T07:06:48.936Z,1.11
2023-03-06T07:07:49.370Z,1.27
2023-03-06T07:08:49.325Z,1.50
2023-03-06T07:09:49.315Z,1.64
2023-03-06T07:10:49.320Z,1.62
2023-03-06T07:11:49.354Z,1.65
2023-03-06T07:12:49.332Z,1.58
2023-03-06T07:13:49.311Z,1.71
2023-03-06T07:14:49.296Z,1.81
2023-03-06T07:15:48.326Z,2.02
2023-03-06T07:16:49.278Z,1.98
2023-03-06T07:17:50.294Z,2.04
2023-03-06T07:18:48.263Z,2.01
2023-03-06T07:19:49.275Z,1.90
2023-03-06T07:20:49.240Z,1.97
2023-03-06T07:21:49.277Z,1.91
2023-03-06T07:22:51.602Z,2.23
2023-03-06T07:23:49.284Z,2.38
2023-03-06T07:24:49.267Z,2.34
2023-03-06T07:25:48.218Z,2.45
2023-03-06T07:26:48.208Z,2.84
2023-03-06T07:27:53.475Z,2.89
2023-03-06T07:28:52.750Z,2.90
2023-03-06T07:29:49.174Z,2.90
2023-03-06T07:30:48.162Z,2.90
2023-03-06T07:31:49.172Z,2.89
2023-03-06T07:32:49.188Z,2.78
2023-03-06T07:33:49.178Z,2.84
2023-03-06T07:34:49.193Z,3.04
2023-03-06T07:35:49.156Z,2.95
2023-03-06T07:36:49.149Z,2.81
2023-03-06T07:37:48.121Z,3.04
2023-03-06T07:38:49.156Z,3.15
2023-03-06T07:39:49.122Z,3.13
2023-03-06T07:40:49.110Z,3.15
2023-03-06T07:41:49.102Z,3.11
2023-03-06T07:42:49.132Z,3.19
2023-03-06T07:43:49.093Z,3.37
2023-03-06T07:44:48.100Z,3.19
2023-03-06T07:45:49.070Z,3.28
2023-03-06T07:46:49.107Z,3.33
2023-03-06T07:47:49.049Z,3.14
2023-03-06T07:48:49.069Z,3.19
2023-03-06T07:49:48.073Z,3.31
2023-03-06T07:50:48.056Z,3.24
2023-03-06T07:51:49.058Z,3.06
2023-03-06T07:52:49.037Z,3.06
2023-03-06T07:53:49.449Z,3.21
2023-03-06T07:54:49.018Z,3.27
2023-03-06T07:55:49.015Z,2.96
2023-03-06T07:56:49.009Z,3.06
2023-03-06T07:57:49.004Z,3.59
2023-03-06T07:58:49.467Z,3.98
2023-03-06T07:59:47.971Z,4.20
2023-03-06T08:00:48.969Z,3.97
2023-03-06T08:01:48.956Z,4.19
2023-03-06T08:02:49.045Z,4.47
2023-03-06T08:03:48.979Z,4.39
2023-03-06T08:04:48.941Z,4.63
2023-03-06T08:05:49.004Z,4.66
2023-03-06T08:06:48.941Z,4.45
2023-03-06T08:07:48.937Z,4.85
2023-03-06T08:08:48.949Z,4.57
2023-03-06T08:09:48.909Z,5.09
2023-03-06T08:10:48.924Z,4.63
2023-03-06T08:11:48.959Z,5.30
2023-03-06T08:12:48.987Z,4.99
2023-03-06T08:13:49.042Z,5.16
2023-03-06T08:14:49.056Z,5.04
2023-03-06T08:15:48.061Z,4.90
2023-03-06T08:16:48.126Z,4.74
2023-03-06T08:17:49.145Z,5.23
2023-03-06T08:18:48.204Z,4.90
2023-03-06T08:19:49.249Z,5.02
2023-03-06T08:20:49.321Z,5.43
2023-03-06T08:21:49.408Z,5.64
2023-03-06T08:22:48.442Z,5.97
2023-03-06T08:23:49.479Z,6.36
2023-03-06T08:24:49.506Z,6.37
2023-03-06T08:25:49.559Z,6.64
2023-03-06T08:26:49.644Z,7.12
2023-03-06T08:27:49.722Z,6.90
2023-03-06T08:28:49.742Z,7.29
2023-03-06T08:29:49.803Z,6.70
2023-03-06T08:30:49.858Z,7.03
2023-03-06T08:31:49.971Z,7.11
2023-03-06T08:32:49.021Z,6.94
2023-03-06T08:33:50.064Z,7.56
2023-03-06T08:34:50.104Z,7.52
2023-03-06T08:35:50.217Z,7.51
2023-03-06T08:36:49.231Z,7.52
2023-03-06T08:37:50.303Z,7.39
2023-03-06T08:38:49.324Z,7.37
2023-03-06T08:39:50.356Z,7.70
2023-03-06T08:40:50.398Z,7.89
2023-03-06T08:41:50.435Z,7.70
2023-03-06T08:42:50.484Z,7.92
2023-03-06T08:43:50.517Z,7.83
2023-03-06T08:44:50.568Z,8.21
2023-03-06T08:45:50.696Z,8.20
2023-03-06T08:46:50.637Z,7.67
2023-03-06T08:47:50.722Z,7.41
2023-03-06T08:48:51.018Z,7.87
2023-03-06T08:49:49.825Z,7.81
2023-03-06T08:50:49.873Z,8.49
2023-03-06T08:51:50.913Z,8.81
2023-03-06T08:52:50.002Z,8.48
2023-03-06T08:53:51.065Z,8.90
2023-03-06T08:54:51.067Z,10.69
2023-03-06T08:55:51.104Z,9.49
2023-03-06T08:56:51.154Z,9.29
2023-03-06T08:57:51.211Z,9.58
2023-03-06T08:58:51.246Z,9.97
2023-03-06T08:59:50.262Z,9.51
2023-03-06T09:00:50.446Z,9.15
2023-03-06T09:01:51.367Z,9.40
2023-03-06T09:02:50.392Z,9.21
2023-03-06T09:03:51.461Z,9.35
2023-03-06T09:04:50.506Z,9.51
2023-03-06T09:05:50.507Z,9.37
2023-03-06T09:06:51.530Z,8.69
2023-03-06T09:07:50.566Z,8.46
2023-03-06T09:08:51.588Z,8.55
2023-03-06T09:09:51.691Z,8.58
2023-03-06T09:10:51.757Z,8.17
2023-03-06T09:11:51.702Z,9.56
2023-03-06T09:12:54.416Z,9.04
2023-03-06T09:13:51.726Z,9.05
2023-03-06T09:14:51.692Z,9.16
2023-03-06T09:15:51.699Z,9.53
2023-03-06T09:16:51.749Z,9.85
2023-03-06T09:17:51.697Z,9.85
2023-03-06T09:18:51.681Z,9.61
2023-03-06T09:19:51.658Z,10.37
2023-03-06T09:20:51.672Z,9.82
2023-03-06T09:21:51.670Z,9.68
2023-03-06T09:22:51.650Z,9.32
2023-03-06T09:23:51.645Z,9.55
2023-03-06T09:24:51.641Z,9.03
2023-03-06T09:25:50.650Z,8.98
2023-03-06T09:26:51.836Z,9.55
2023-03-06T09:28:08.658Z,10.05
2023-03-06T09:28:51.617Z,10.07
2023-03-06T09:29:51.597Z,10.14
2023-03-06T09:30:51.619Z,10.13
2023-03-06T09:31:50.568Z,9.88
2023-03-06T09:32:51.572Z,9.82
2023-03-06T09:33:51.574Z,9.57
2023-03-06T09:34:50.570Z,9.98
2023-03-06T09:35:51.582Z,9.97
2023-03-06T09:36:56.505Z,9.82
2023-03-06T09:37:51.550Z,9.85
2023-03-06T09:38:51.541Z,9.91
2023-03-06T09:39:51.523Z,10.23
2023-03-06T09:40:50.536Z,10.61
2023-03-06T09:41:51.549Z,10.44
2023-03-06T09:42:51.517Z,9.74
2023-03-06T09:43:51.996Z,9.07
2023-03-06T09:44:51.512Z,8.74
2023-03-06T09:45:51.563Z,7.60
2023-03-06T09:46:51.479Z,6.39
2023-03-06T09:47:51.478Z,5.97
2023-03-06T09:48:51.471Z,5.92
2023-03-06T09:49:50.478Z,4.49
2023-03-06T09:50:51.450Z,5.22
2023-03-06T09:51:50.453Z,4.96
2023-03-06T09:52:51.475Z,4.94
2023-03-06T09:53:51.433Z,4.40
2023-03-06T09:54:51.423Z,4.44
2023-03-06T09:55:51.417Z,4.33
2023-03-06T09:56:51.411Z,4.12
2023-03-06T09:57:52.439Z,3.96
2023-03-06T09:58:51.537Z,4.15
2023-03-06T09:59:50.398Z,4.02
2023-03-06T10:00:51.379Z,4.09
2023-03-06T10:01:50.369Z,4.27
2023-03-06T10:02:51.519Z,5.09
2023-03-06T10:03:50.365Z,4.82
2023-03-06T10:04:50.427Z,5.13
2023-03-06T10:05:51.350Z,5.08
2023-03-06T10:06:51.341Z,5.04
2023-03-06T10:07:50.348Z,4.68
2023-03-06T10:08:51.315Z,4.75
2023-03-06T10:09:50.400Z,4.76
2023-03-06T10:10:51.314Z,4.92
2023-03-06T10:11:50.362Z,4.98
2023-03-06T10:12:50.377Z,4.92
2023-03-06T10:13:51.527Z,5.06
2023-03-06T10:14:51.503Z,5.15
2023-03-06T10:15:50.545Z,5.50
2023-03-06T10:16:51.586Z,5.21
2023-03-06T10:17:51.631Z,5.04
2023-03-06T10:18:50.683Z,5.16
2023-03-06T10:19:51.735Z,5.35
2023-03-06T10:20:50.758Z,5.89
2023-03-06T10:21:51.802Z,5.82
2023-03-06T10:23:00.622Z,6.42
2023-03-06T10:23:51.831Z,6.43
2023-03-06T10:24:50.827Z,6.34
2023-03-06T10:25:50.832Z,5.88
2023-03-06T10:26:51.951Z,5.71
2023-03-06T10:27:51.807Z,5.59
2023-03-06T10:28:51.812Z,5.70
2023-03-06T10:30:02.117Z,5.72
2023-03-06T10:30:51.915Z,5.72
2023-03-06T10:31:51.786Z,5.76
2023-03-06T10:32:51.810Z,5.84
2023-03-06T10:33:51.762Z,5.81
2023-03-06T10:34:51.776Z,5.63
2023-03-06T10:35:50.888Z,5.94
2023-03-06T10:36:51.759Z,6.20
2023-03-06T10:37:51.746Z,6.43
2023-03-06T10:38:51.758Z,6.11
2023-03-06T10:39:51.724Z,6.38
2023-03-06T10:40:51.714Z,6.28
2023-03-06T10:41:51.737Z,6.23
2023-03-06T10:42:58.768Z,6.49
2023-03-06T10:43:51.708Z,6.50
2023-03-06T10:44:51.026Z,6.57
2023-03-06T10:45:50.757Z,6.63
2023-03-06T10:46:51.697Z,6.60
2023-03-06T10:47:51.667Z,6.53
2023-03-06T10:48:51.682Z,6.41
2023-03-06T10:49:52.026Z,6.41
2023-03-06T10:50:51.625Z,6.21
2023-03-06T10:51:51.671Z,6.07
2023-03-06T10:52:51.618Z,6.37
2023-03-06T10:53:51.679Z,6.34
2023-03-06T10:54:51.047Z,6.27
2023-03-06T10:55:51.603Z,6.00
2023-03-06T10:56:51.593Z,6.48
2023-03-06T10:57:51.598Z,6.06
2023-03-06T10:58:51.577Z,5.52
2023-03-06T10:59:51.603Z,5.16
2023-03-06T11:00:51.552Z,5.49
2023-03-06T11:01:51.713Z,4.83
2023-03-06T11:02:51.532Z,4.51
2023-03-06T11:03:51.575Z,4.23
2023-03-06T11:04:51.648Z,4.28
2023-03-06T11:05:51.505Z,4.12
2023-03-06T11:06:51.510Z,3.94
2023-03-06T11:07:51.493Z,3.99
2023-03-06T11:08:51.532Z,4.06
2023-03-06T11:09:51.501Z,3.79
2023-03-06T11:10:51.484Z,4.29
2023-03-06T11:11:51.480Z,4.00
2023-03-06T11:12:51.477Z,4.10
2023-03-06T11:13:51.454Z,4.24
2023-03-06T11:14:51.453Z,4.08
2023-03-06T11:15:51.479Z,4.17
2023-03-06T11:16:51.445Z,3.81
2023-03-06T11:17:51.528Z,4.11
2023-03-06T11:18:51.444Z,4.50
2023-03-06T11:19:51.451Z,4.52
2023-03-06T11:20:52.843Z,4.61
2023-03-06T11:21:50.573Z,4.85
2023-03-06T11:22:51.575Z,4.81
2023-03-06T11:23:51.605Z,4.61
2023-03-06T11:24:51.604Z,4.73
2023-03-06T11:25:51.634Z,4.72
2023-03-06T11:26:51.647Z,4.53
2023-03-06T11:27:51.640Z,4.49
2023-03-06T11:28:50.678Z,4.59
2023-03-06T11:29:51.679Z,4.57
2023-03-06T11:30:51.680Z,4.75
2023-03-06T11:31:50.684Z,4.77
2023-03-06T11:32:51.702Z,4.86
2023-03-06T11:33:51.723Z,5.07
2023-03-06T11:34:51.717Z,5.22
2023-03-06T11:35:51.798Z,4.91
2023-03-06T11:36:51.711Z,4.91
2023-03-06T11:37:51.716Z,4.73
2023-03-06T11:38:51.725Z,4.52
2023-03-06T11:39:51.796Z,5.29
2023-03-06T11:40:51.752Z,4.88
2023-03-06T11:41:51.751Z,5.11
2023-03-06T11:42:51.763Z,4.68
2023-03-06T11:43:50.730Z,4.71
2023-03-06T11:44:50.725Z,4.61
2023-03-06T11:45:51.747Z,4.14
2023-03-06T11:46:51.850Z,3.98
2023-03-06T11:47:51.805Z,3.69
2023-03-06T11:48:51.801Z,3.69
2023-03-06T11:49:51.894Z,3.75
2023-03-06T11:50:51.827Z,3.51
2023-03-06T11:51:51.860Z,3.52
2023-03-06T11:52:51.869Z,3.44
2023-03-06T11:53:51.920Z,3.48
2023-03-06T11:54:51.913Z,3.46
2023-03-06T11:55:51.967Z,3.35
2023-03-06T11:56:52.040Z,3.27
2023-03-06T11:57:51.986Z,3.27
2023-03-06T11:58:52.014Z,3.15
2023-03-06T11:59:52.031Z,3.29
2023-03-06T12:00:52.034Z,3.40
2023-03-06T12:01:52.166Z,3.36
2023-03-06T12:02:52.044Z,3.35
2023-03-06T12:03:52.047Z,3.32
2023-03-06T12:04:52.073Z,3.15
2023-03-06T12:05:52.087Z,3.24
2023-03-06T12:06:52.070Z,3.23
2023-03-06T12:07:52.090Z,3.26
2023-03-06T12:08:52.078Z,3.45
2023-03-06T12:09:52.101Z,3.36
2023-03-06T12:10:52.446Z,3.45
2023-03-06T12:11:52.092Z,3.46
2023-03-06T12:12:52.083Z,3.46
2023-03-06T12:14:51.099Z,3.68
2023-03-06T12:15:52.101Z,3.84
2023-03-06T12:16:52.175Z,3.82
2023-03-06T12:17:52.085Z,3.93
2023-03-06T12:18:52.080Z,3.77
2023-03-06T12:19:51.112Z,3.75
2023-03-06T12:20:52.088Z,4.21
2023-03-06T12:21:52.111Z,4.00
2023-03-06T12:22:57.585Z,3.94
2023-03-06T12:23:52.080Z,3.95
2023-03-06T12:24:52.086Z,3.97
2023-03-06T12:25:52.066Z,4.09
2023-03-06T12:26:52.046Z,4.09
2023-03-06T12:27:52.033Z,4.08
2023-03-06T12:28:52.026Z,4.04
2023-03-06T12:29:52.075Z,4.10
2023-03-06T12:30:52.023Z,4.05
2023-03-06T12:31:52.055Z,4.13
2023-03-06T12:32:52.144Z,4.30
2023-03-06T12:33:51.994Z,4.21
2023-03-06T12:34:51.993Z,4.24
2023-03-06T12:35:51.015Z,4.30
2023-03-06T12:36:52.010Z,4.53
2023-03-06T12:37:51.990Z,4.52
2023-03-06T12:38:51.970Z,4.41
2023-03-06T12:39:52.065Z,4.38
2023-03-06T12:40:51.961Z,4.28
2023-03-06T12:41:51.937Z,4.13
2023-03-06T12:42:51.943Z,4.11
2023-03-06T12:43:51.918Z,4.22
2023-03-06T12:44:50.920Z,4.18
2023-03-06T12:45:51.981Z,4.15
2023-03-06T12:46:51.930Z,4.13
2023-03-06T12:47:51.895Z,4.13
2023-03-06T12:48:50.893Z,4.13
2023-03-06T12:49:50.899Z,4.11
2023-03-06T12:50:51.870Z,4.15
2023-03-06T12:51:51.864Z,4.08
2023-03-06T12:52:51.873Z,4.05
2023-03-06T12:53:51.893Z,4.05
2023-03-06T12:54:51.895Z,4.04
2023-03-06T12:55:51.866Z,4.02
2023-03-06T12:56:51.929Z,4.02
2023-03-06T12:57:50.910Z,4.07
2023-03-06T12:58:51.972Z,3.97
2023-03-06T12:59:52.039Z,3.88
2023-03-06T13:00:55.381Z,3.87
2023-03-06T13:01:52.200Z,3.88
2023-03-06T13:02:52.115Z,3.90
2023-03-06T13:03:51.063Z,3.91
2023-03-06T13:04:52.057Z,3.89
2023-03-06T13:05:52.179Z,3.84
2023-03-06T13:06:52.039Z,3.77
2023-03-06T13:07:52.038Z,3.77
2023-03-06T13:08:52.033Z,3.69
2023-03-06T13:09:52.047Z,3.69
2023-03-06T13:10:52.009Z,3.66
2023-03-06T13:11:51.008Z,3.70
2023-03-06T13:12:52.010Z,3.60
2023-03-06T13:13:52.005Z,3.70
2023-03-06T13:14:54.578Z,3.63
2023-03-06T13:15:52.001Z,3.63
2023-03-06T13:16:52.027Z,3.63
2023-03-06T13:17:51.971Z,3.63
2023-03-06T13:18:51.964Z,3.61
2023-03-06T13:19:51.958Z,3.56
2023-03-06T13:20:51.960Z,3.55